TimeMST,TemperatureF,Dew PointF,Humidity,Sea Level PressureIn,VisibilityMPH,Wind Direction,Wind SpeedMPH,Gust SpeedMPH,PrecipitationIn,Events,Conditions,WindDirDegrees,DateUTC
12:53 AM,-0.0,-8.0,69,30.51,10.0,SSE,11.5,-,N/A,,Clear,160,2013-01-06 07:53:00
1:53 AM,3.0,-7.1,63,30.48,10.0,SSE,13.8,-,N/A,,Clear,150,2013-01-06 08:53:00
2:53 AM,6.1,-7.1,55,30.45,10.0,SSE,11.5,-,N/A,,Clear,160,2013-01-06 09:53:00
3:53 AM,1.9,-9.0,60,30.44,10.0,SSE,10.4,-,N/A,,Clear,160,2013-01-06 10:53:00
5:53 AM,5.0,-9.0,52,30.44,10.0,SSE,10.4,-,N/A,,Clear,150,2013-01-06 12:53:00
6:53 AM,5.0,-9.9,50,30.43,10.0,SSE,12.7,-,N/A,,Clear,160,2013-01-06 13:53:00
7:53 AM,9.0,-9.0,44,30.43,10.0,South,10.4,-,N/A,,Clear,170,2013-01-06 14:53:00
8:53 AM,8.1,-7.1,50,30.42,10.0,South,12.7,-,N/A,,Clear,170,2013-01-06 15:53:00
9:53 AM,10.9,-2.0,56,30.38,10.0,Calm,Calm,-,N/A,,Clear,0,2013-01-06 16:53:00
11:53 AM,25.0,8.1,49,30.24,10.0,SSE,6.9,-,N/A,,Clear,160,2013-01-06 18:53:00
12:53 PM,35.1,7.0,31,30.17,-9999.0,Calm,Calm,-,N/A,,Clear,0,2013-01-06 19:53:00
1:53 PM,37.0,7.0,29,30.13,-9999.0,Variable,3.5,-,N/A,,Clear,0,2013-01-06 20:53:00
2:53 PM,28.9,12.9,51,30.13,-9999.0,West,5.8,-,N/A,,Clear,260,2013-01-06 21:53:00
3:53 PM,35.1,12.0,39,30.11,-9999.0,SW,19.6,-,N/A,,Clear,220,2013-01-06 22:53:00
4:53 PM,30.0,10.0,43,30.13,-9999.0,SW,13.8,-,N/A,,Clear,220,2013-01-06 23:53:00
5:53 PM,27.0,7.0,43,30.13,10.0,West,13.8,-,N/A,,Clear,270,2013-01-07 00:53:00
6:53 PM,24.1,5.0,44,30.15,10.0,West,9.2,17.3,N/A,,Clear,280,2013-01-07 01:53:00
7:53 PM,27.0,7.0,43,30.11,10.0,SW,17.3,-,N/A,,Clear,230,2013-01-07 02:53:00
8:53 PM,30.0,7.0,38,30.09,10.0,SW,13.8,-,N/A,,Clear,230,2013-01-07 03:53:00
9:53 PM,32.0,3.0,29,30.05,10.0,WSW,21.9,28.8,N/A,,Clear,250,2013-01-07 04:53:00
10:53 PM,28.9,3.0,33,30.01,10.0,SW,23.0,-,N/A,,Clear,220,2013-01-07 05:53:00
11:53 PM,27.0,3.9,37,29.99,10.0,SW,20.7,-,N/A,,Clear,220,2013-01-07 06:53:00